createdAt,value
2023-01-01T00:02:09.073Z,99.90
2023-01-01T00:04:35.843Z,99.90
2023-01-01T00:07:02.483Z,99.90
2023-01-01T00:09:47.622Z,99.90
2023-01-01T00:12:14.328Z,99.90
2023-01-01T00:14:43.132Z,99.90
2023-01-01T00:17:10.254Z,99.90
2023-01-01T00:19:37.078Z,99.90
2023-01-01T00:22:27.914Z,99.90
2023-01-01T00:24:50.560Z,99.90
2023-01-01T00:27:17.300Z,99.90
2023-01-01T00:29:44.174Z,99.90
2023-01-01T00:32:15.454Z,99.90
2023-01-01T00:34:45.858Z,99.90
2023-01-01T00:37:12.602Z,99.90
2023-01-01T00:39:39.239Z,99.90
2023-01-01T00:42:05.908Z,99.90
2023-01-01T00:44:32.527Z,99.90
2023-01-01T00:46:59.167Z,99.90
2023-01-01T00:49:25.814Z,99.90
2023-01-01T00:51:52.433Z,99.90
2023-01-01T00:54:19.184Z,99.90
2023-01-01T00:56:45.845Z,99.90
2023-01-01T00:59:12.480Z,99.90
2023-01-01T01:01:40.808Z,99.90
2023-01-01T01:04:09.090Z,99.90
2023-01-01T01:06:36.149Z,99.90
2023-01-01T01:09:02.990Z,99.90
2023-01-01T01:11:29.661Z,99.90
2023-01-01T01:13:56.875Z,99.90
2023-01-01T01:16:28.285Z,99.90
2023-01-01T01:18:57.591Z,99.90
2023-01-01T01:21:25.086Z,99.90
2023-01-01T01:23:51.914Z,99.90
2023-01-01T01:26:23.500Z,99.90
2023-01-01T01:28:50.686Z,99.90
2023-01-01T01:31:18.158Z,99.90
2023-01-01T01:33:45.684Z,99.90
2023-01-01T01:36:12.954Z,99.90
2023-01-01T01:38:39.652Z,99.90
2023-01-01T01:41:08.755Z,99.90
2023-01-01T01:43:35.432Z,99.90
2023-01-01T01:46:05.863Z,99.90
2023-01-01T01:48:37.277Z,99.90
2023-01-01T01:51:04.109Z,99.90
2023-01-01T01:53:32.545Z,99.90
2023-01-01T01:56:04.620Z,99.90
2023-01-01T01:58:31.773Z,99.90
2023-01-01T02:00:59.372Z,99.90
2023-01-01T02:03:32.338Z,99.90
2023-01-01T02:05:59.049Z,99.90
2023-01-01T02:08:26.032Z,99.90
2023-01-01T02:10:52.727Z,99.90
2023-01-01T02:13:19.543Z,99.90
2023-01-01T02:15:54.480Z,99.90
2023-01-01T02:18:26.116Z,99.90
2023-01-01T02:21:06.759Z,99.90
2023-01-01T02:23:48.215Z,99.90
2023-01-01T02:26:38.709Z,99.90
2023-01-01T02:29:24.539Z,99.90
2023-01-01T02:31:57.622Z,99.90
2023-01-01T02:34:27.256Z,99.90
2023-01-01T02:36:55.283Z,99.90
2023-01-01T02:39:25.241Z,99.90
2023-01-01T02:41:54.242Z,99.90
2023-01-01T02:44:22.377Z,99.90
2023-01-01T02:46:49.010Z,99.90
2023-01-01T02:49:15.758Z,99.90
2023-01-01T02:51:52.200Z,99.90
2023-01-01T02:54:18.816Z,99.90
2023-01-01T02:56:54.386Z,99.90
2023-01-01T02:59:39.520Z,99.90
2023-01-01T03:02:21.651Z,99.90
2023-01-01T03:05:01.522Z,99.90
2023-01-01T03:07:46.527Z,99.90
2023-01-01T03:10:15.625Z,99.90
2023-01-01T03:13:05.610Z,99.90
2023-01-01T03:15:59.894Z,99.90
2023-01-01T03:18:30.745Z,99.90
2023-01-01T03:20:58.894Z,99.90
2023-01-01T03:23:28.161Z,99.90
2023-01-01T03:25:57.443Z,99.90
2023-01-01T03:28:26.845Z,99.90
2023-01-01T03:30:54.093Z,99.90
2023-01-01T03:33:23.594Z,99.90
2023-01-01T03:35:51.781Z,99.90
2023-01-01T03:38:21.259Z,99.90
2023-01-01T03:40:49.149Z,99.90
2023-01-01T03:43:19.463Z,99.90
2023-01-01T03:45:47.682Z,99.90
2023-01-01T03:48:14.353Z,99.90
2023-01-01T03:50:56.918Z,99.90
2023-01-01T03:53:40.789Z,99.90
2023-01-01T03:56:20.182Z,99.90
2023-01-01T03:58:54.872Z,99.90
2023-01-01T04:01:27.097Z,99.90
2023-01-01T04:03:54.075Z,99.90
2023-01-01T04:06:20.931Z,99.90
2023-01-01T04:08:49.248Z,99.90
2023-01-01T04:11:36.885Z,99.90
2023-01-01T04:14:03.543Z,99.90
2023-01-01T04:16:30.353Z,99.90
2023-01-01T04:18:57.106Z,99.90
2023-01-01T04:21:23.708Z,99.90
2023-01-01T04:23:50.371Z,99.90
2023-01-01T04:26:17.116Z,99.90
2023-01-01T04:28:44.162Z,99.90
2023-01-01T04:31:11.775Z,99.90
2023-01-01T04:33:38.437Z,99.90
2023-01-01T04:36:06.291Z,99.90
2023-01-01T04:38:33.625Z,99.90
2023-01-01T04:41:00.793Z,99.90
2023-01-01T04:43:27.772Z,99.90
2023-01-01T04:46:01.349Z,99.90
2023-01-01T04:48:28.581Z,99.90
2023-01-01T04:50:59.242Z,99.90
2023-01-01T04:53:28.673Z,99.90
2023-01-01T04:55:55.424Z,99.90
2023-01-01T04:58:22.114Z,99.90
2023-01-01T05:00:50.086Z,99.90
2023-01-01T05:03:17.361Z,99.90
2023-01-01T05:05:49.451Z,99.90
2023-01-01T05:08:17.856Z,99.90
2023-01-01T05:10:44.496Z,99.90
2023-01-01T05:13:11.129Z,99.90
2023-01-01T05:15:37.844Z,99.90
2023-01-01T05:18:04.786Z,99.90
2023-01-01T05:20:31.570Z,99.90
2023-01-01T05:22:58.328Z,99.90
2023-01-01T05:25:25.180Z,99.90
2023-01-01T05:27:51.924Z,99.90
2023-01-01T05:30:18.594Z,99.90
2023-01-01T05:32:45.258Z,99.90
2023-01-01T05:35:11.903Z,99.90
2023-01-01T05:37:38.709Z,99.90
2023-01-01T05:40:05.751Z,99.90
2023-01-01T05:42:32.415Z,99.90
2023-01-01T05:44:59.072Z,99.90
2023-01-01T05:47:29.658Z,99.90
2023-01-01T05:49:56.667Z,99.90
2023-01-01T05:52:26.832Z,99.90
2023-01-01T05:54:54.019Z,99.90
2023-01-01T05:57:20.741Z,99.90
2023-01-01T05:59:47.389Z,99.90
2023-01-01T06:02:14.177Z,99.90
2023-01-01T06:04:41.129Z,99.90
2023-01-01T06:07:07.783Z,99.90
2023-01-01T06:09:34.366Z,99.90
2023-01-01T06:12:01.055Z,99.90
2023-01-01T06:14:27.753Z,99.90
2023-01-01T06:16:54.462Z,99.90
2023-01-01T06:19:21.136Z,99.90
2023-01-01T06:21:47.875Z,99.90
2023-01-01T06:24:14.578Z,99.90
2023-01-01T06:26:41.485Z,99.90
2023-01-01T06:29:08.195Z,99.90
2023-01-01T06:31:40.477Z,99.90
2023-01-01T06:34:07.804Z,99.90
2023-01-01T06:36:34.559Z,99.90
2023-01-01T06:39:03.507Z,99.90
2023-01-01T06:41:30.960Z,99.90
2023-01-01T06:43:58.524Z,99.90
2023-01-01T06:46:26.601Z,99.90
2023-01-01T06:48:57.860Z,99.90
2023-01-01T06:51:25.914Z,99.90
2023-01-01T06:53:52.947Z,99.90
2023-01-01T06:56:20.352Z,99.90
2023-01-01T06:58:47.070Z,99.90
2023-01-01T07:01:18.027Z,99.90
2023-01-01T07:03:45.467Z,99.90
2023-01-01T07:06:12.219Z,99.90
2023-01-01T07:08:38.938Z,99.90
2023-01-01T07:11:05.676Z,99.90
2023-01-01T07:13:32.615Z,99.90
2023-01-01T07:15:59.797Z,99.90
2023-01-01T07:18:26.779Z,99.90
2023-01-01T07:21:00.629Z,99.90
2023-01-01T07:23:28.564Z,99.90
2023-01-01T07:25:55.605Z,99.90
2023-01-01T07:28:22.686Z,99.90
2023-01-01T07:30:49.535Z,99.90
2023-01-01T07:33:20.365Z,99.90
2023-01-01T07:35:47.198Z,99.90
2023-01-01T07:38:14.515Z,99.90
2023-01-01T07:40:41.642Z,99.90
2023-01-01T07:43:08.467Z,99.90
2023-01-01T07:45:35.487Z,99.90
2023-01-01T07:48:02.237Z,99.90
2023-01-01T07:50:30.429Z,99.90
2023-01-01T07:52:57.296Z,99.90
2023-01-01T07:55:24.135Z,99.90
2023-01-01T07:57:50.777Z,99.90
2023-01-01T08:00:18.915Z,99.90
2023-01-01T08:02:46.012Z,99.90
2023-01-01T08:05:12.903Z,99.90
2023-01-01T08:07:39.672Z,99.90
2023-01-01T08:10:06.658Z,99.90
2023-01-01T08:12:33.713Z,99.90
2023-01-01T08:15:00.429Z,99.90
2023-01-01T08:17:27.212Z,99.90
2023-01-01T08:19:53.865Z,99.90
2023-01-01T08:22:20.539Z,99.90
2023-01-01T08:24:47.374Z,99.90
2023-01-01T08:27:14.804Z,99.90
2023-01-01T08:29:41.817Z,99.90
2023-01-01T08:32:08.548Z,99.90
2023-01-01T08:34:35.186Z,99.90
2023-01-01T08:37:01.917Z,99.90
2023-01-01T08:39:28.888Z,99.90
2023-01-01T08:41:55.514Z,99.90
2023-01-01T08:44:22.181Z,99.90
2023-01-01T08:46:49.002Z,99.90
2023-01-01T08:49:15.846Z,99.90
2023-01-01T08:51:42.503Z,99.90
2023-01-01T08:54:09.261Z,99.90
2023-01-01T08:56:37.617Z,99.90
2023-01-01T08:59:04.730Z,99.90
2023-01-01T09:01:32.053Z,99.90
2023-01-01T09:03:58.722Z,99.90
2023-01-01T09:06:25.415Z,99.90
2023-01-01T09:08:52.120Z,99.90
2023-01-01T09:11:26.291Z,99.90
2023-01-01T09:13:53.462Z,99.90
2023-01-01T09:16:20.605Z,99.90
2023-01-01T09:18:47.403Z,99.90
2023-01-01T09:21:14.111Z,99.90
2023-01-01T09:23:40.999Z,99.90
2023-01-01T09:26:08.952Z,99.90
2023-01-01T09:28:35.995Z,99.90
2023-01-01T09:31:05.302Z,99.90
2023-01-01T09:33:32.451Z,99.90
2023-01-01T09:36:16.041Z,99.90
2023-01-01T09:38:42.926Z,99.90
2023-01-01T09:41:29.873Z,99.90
2023-01-01T09:44:03.301Z,99.90
2023-01-01T09:46:32.043Z,99.90
2023-01-01T09:49:01.354Z,99.90
2023-01-01T09:51:31.949Z,99.90
2023-01-01T09:54:01.640Z,99.90
2023-01-01T09:56:29.422Z,99.90
2023-01-01T09:58:58.848Z,99.90
2023-01-01T10:01:38.870Z,99.90
2023-01-01T10:04:05.618Z,99.90
2023-01-01T10:06:33.003Z,99.90
2023-01-01T10:09:20.546Z,99.90
2023-01-01T10:11:56.249Z,99.90
2023-01-01T10:14:32.224Z,99.90
2023-01-01T10:17:01.691Z,99.90
2023-01-01T10:19:32.336Z,99.90
2023-01-01T10:22:03.525Z,99.90
2023-01-01T10:24:36.590Z,99.90
2023-01-01T10:27:04.309Z,99.90
2023-01-01T10:29:40.374Z,99.90
2023-01-01T10:32:33.405Z,99.80
2023-01-01T10:35:00.997Z,99.20
2023-01-01T10:37:35.832Z,98.90
2023-01-01T10:40:13.451Z,99.10
2023-01-01T10:42:40.165Z,98.90
2023-01-01T10:45:11.954Z,98.50
2023-01-01T10:47:38.614Z,97.80
2023-01-01T10:50:08.103Z,96.50
2023-01-01T10:52:36.364Z,95.60
2023-01-01T10:55:03.530Z,95.30
2023-01-01T10:57:32.166Z,95.10
2023-01-01T11:00:17.455Z,94.90
2023-01-01T11:02:44.214Z,93.60
2023-01-01T11:05:21.931Z,93.60
2023-01-01T11:07:50.257Z,93.80
2023-01-01T11:10:25.784Z,93.90
2023-01-01T11:13:09.744Z,93.50
2023-01-01T11:15:38.955Z,93.00
2023-01-01T11:18:06.572Z,91.50
2023-01-01T11:20:33.552Z,91.00
2023-01-01T11:23:17.016Z,90.00
2023-01-01T11:25:56.474Z,88.20
2023-01-01T11:28:23.158Z,87.20
2023-01-01T11:31:04.272Z,87.60
2023-01-01T11:33:32.297Z,86.10
2023-01-01T11:35:59.194Z,83.90
2023-01-01T11:38:29.787Z,86.30
2023-01-01T11:41:01.502Z,86.20
2023-01-01T11:43:29.031Z,85.80
2023-01-01T11:45:57.319Z,84.70
2023-01-01T11:48:26.842Z,84.10
2023-01-01T11:50:55.185Z,85.50
2023-01-01T11:53:24.949Z,85.20
2023-01-01T11:56:13.244Z,87.60
2023-01-01T11:58:54.457Z,87.80
2023-01-01T12:01:24.223Z,88.10
2023-01-01T12:03:54.029Z,88.30
2023-01-01T12:06:20.681Z,88.00
2023-01-01T12:08:51.610Z,88.70
2023-01-01T12:11:25.171Z,89.20
2023-01-01T12:13:56.333Z,88.60
2023-01-01T12:16:26.732Z,87.80
2023-01-01T12:18:59.408Z,87.90
2023-01-01T12:21:26.812Z,87.20
2023-01-01T12:23:54.124Z,86.90
2023-01-01T12:26:32.821Z,87.20
2023-01-01T12:29:05.473Z,86.80
2023-01-01T12:31:56.799Z,88.20
2023-01-01T12:34:26.441Z,89.00
2023-01-01T12:37:11.121Z,89.20
2023-01-01T12:39:37.804Z,90.70
2023-01-01T12:42:14.455Z,91.00
2023-01-01T12:44:59.776Z,91.00
2023-01-01T12:47:29.554Z,91.50
2023-01-01T12:50:08.870Z,91.30
2023-01-01T12:52:41.264Z,91.50
2023-01-01T12:55:19.989Z,91.80
2023-01-01T12:57:55.323Z,92.30
2023-01-01T13:00:22.049Z,92.50
2023-01-01T13:02:58.569Z,92.40
2023-01-01T13:05:28.830Z,92.80
2023-01-01T13:07:59.024Z,92.80
2023-01-01T13:10:27.786Z,92.70
2023-01-01T13:12:56.000Z,92.50
2023-01-01T13:15:34.986Z,92.30
2023-01-01T13:18:03.548Z,92.70
2023-01-01T13:20:30.173Z,93.00
2023-01-01T13:22:57.081Z,93.00
2023-01-01T13:25:24.435Z,92.80
2023-01-01T13:27:57.376Z,92.60
2023-01-01T13:30:45.325Z,92.40
2023-01-01T13:33:28.974Z,92.70
2023-01-01T13:36:08.244Z,92.70
2023-01-01T13:38:43.940Z,93.00
2023-01-01T13:41:29.306Z,93.40
2023-01-01T13:44:05.192Z,93.60
2023-01-01T13:46:44.305Z,93.00
2023-01-01T13:49:20.157Z,93.20
2023-01-01T13:52:07.157Z,93.40
2023-01-01T13:54:53.020Z,93.50
2023-01-01T13:57:28.562Z,93.30
2023-01-01T14:00:07.443Z,92.80
2023-01-01T14:02:46.604Z,93.10
2023-01-01T14:05:25.373Z,93.10
2023-01-01T14:07:53.325Z,93.40
2023-01-01T14:10:23.393Z,93.30
2023-01-01T14:12:50.810Z,93.50
2023-01-01T14:15:24.270Z,93.60
2023-01-01T14:17:52.578Z,94.00
2023-01-01T14:20:21.613Z,94.50
2023-01-01T14:22:48.897Z,94.20
2023-01-01T14:25:17.238Z,93.10
2023-01-01T14:27:44.819Z,93.20
2023-01-01T14:30:15.696Z,93.40
2023-01-01T14:32:42.498Z,93.70
2023-01-01T14:35:14.590Z,93.90
2023-01-01T14:37:41.313Z,94.10
2023-01-01T14:40:14.800Z,94.30
2023-01-01T14:42:41.861Z,94.30
2023-01-01T14:45:14.156Z,94.40
2023-01-01T14:47:40.915Z,95.10
2023-01-01T14:50:19.055Z,95.50
2023-01-01T14:52:46.321Z,95.70
2023-01-01T14:55:18.229Z,96.20
2023-01-01T14:57:46.695Z,96.80
2023-01-01T15:00:20.674Z,96.90
2023-01-01T15:02:47.745Z,96.70
2023-01-01T15:05:23.467Z,97.10
2023-01-01T15:07:58.053Z,98.10
2023-01-01T15:10:28.710Z,98.10
2023-01-01T15:12:56.247Z,98.50
2023-01-01T15:15:35.026Z,98.90
2023-01-01T15:18:03.594Z,99.40
2023-01-01T15:20:30.639Z,99.70
2023-01-01T15:22:57.637Z,99.80
2023-01-01T15:25:24.536Z,99.90
2023-01-01T15:27:52.722Z,99.90
2023-01-01T15:30:37.732Z,99.90
2023-01-01T15:33:08.314Z,99.90
2023-01-01T15:35:37.651Z,99.90
2023-01-01T15:38:04.328Z,99.90
2023-01-01T15:40:33.254Z,99.90
2023-01-01T15:42:59.988Z,99.90
2023-01-01T15:45:36.325Z,99.90
2023-01-01T15:48:06.278Z,99.90
2023-01-01T15:51:02.390Z,99.90
2023-01-01T15:53:30.335Z,99.90
2023-01-01T15:56:01.340Z,99.90
2023-01-01T15:58:28.075Z,99.90
2023-01-01T16:00:56.292Z,99.90
2023-01-01T16:03:24.879Z,99.90
2023-01-01T16:05:52.343Z,99.90
2023-01-01T16:08:20.182Z,99.90
2023-01-01T16:10:50.872Z,99.90
2023-01-01T16:13:17.576Z,99.90
2023-01-01T16:15:50.280Z,99.90
2023-01-01T16:18:17.908Z,99.90
2023-01-01T16:20:44.978Z,99.90
2023-01-01T16:23:12.225Z,99.90
2023-01-01T16:25:38.946Z,99.90
2023-01-01T16:28:06.049Z,99.90
2023-01-01T16:30:33.300Z,99.90
2023-01-01T16:33:00.160Z,99.90
2023-01-01T16:35:26.899Z,99.90
2023-01-01T16:37:53.631Z,99.90
2023-01-01T16:40:20.351Z,99.90
2023-01-01T16:42:47.161Z,99.90
2023-01-01T16:45:18.367Z,99.90
2023-01-01T16:47:45.937Z,99.90
2023-01-01T16:50:12.558Z,99.90
2023-01-01T16:52:44.426Z,99.90
2023-01-01T16:55:11.831Z,99.90
2023-01-01T16:57:40.109Z,99.90
2023-01-01T17:00:07.923Z,99.90
2023-01-01T17:02:35.093Z,99.90
2023-01-01T17:05:01.849Z,99.90
2023-01-01T17:07:28.480Z,99.90
2023-01-01T17:09:55.139Z,99.90
2023-01-01T17:12:21.934Z,99.90
2023-01-01T17:14:48.737Z,99.90
2023-01-01T17:17:15.448Z,99.90
2023-01-01T17:19:42.284Z,99.90
2023-01-01T17:22:09.052Z,99.90
2023-01-01T17:24:36.219Z,99.90
2023-01-01T17:27:02.990Z,99.90
2023-01-01T17:29:29.743Z,99.90
2023-01-01T17:31:56.377Z,99.90
2023-01-01T17:34:23.083Z,99.90
2023-01-01T17:36:49.836Z,99.90
2023-01-01T17:39:16.589Z,99.90
2023-01-01T17:41:43.748Z,99.90
2023-01-01T17:44:11.580Z,99.90
2023-01-01T17:46:38.576Z,99.90
2023-01-01T17:49:05.385Z,99.90
2023-01-01T17:51:32.102Z,99.90
2023-01-01T17:53:58.906Z,99.90
2023-01-01T17:56:25.602Z,99.90
2023-01-01T17:58:53.575Z,99.90
2023-01-01T18:01:23.567Z,99.90
2023-01-01T18:03:51.736Z,99.90
2023-01-01T18:06:18.863Z,99.90
2023-01-01T18:08:45.539Z,99.90
2023-01-01T18:11:12.224Z,99.90
2023-01-01T18:13:38.951Z,99.90
2023-01-01T18:16:09.018Z,99.90
2023-01-01T18:18:36.503Z,99.90
2023-01-01T18:21:04.152Z,99.90
2023-01-01T18:23:34.539Z,99.90
2023-01-01T18:26:02.027Z,99.90
2023-01-01T18:28:28.905Z,99.90
2023-01-01T18:30:55.617Z,99.90
2023-01-01T18:33:25.371Z,99.90
2023-01-01T18:35:55.760Z,99.90
2023-01-01T18:38:22.429Z,99.90
2023-01-01T18:40:58.793Z,99.90
2023-01-01T18:43:25.569Z,99.90
2023-01-01T18:45:52.289Z,99.90
2023-01-01T18:48:21.382Z,99.90
2023-01-01T18:50:48.096Z,99.90
2023-01-01T18:53:19.212Z,99.90
2023-01-01T18:55:51.232Z,99.90
2023-01-01T18:58:17.863Z,99.90
2023-01-01T19:00:44.799Z,99.90
2023-01-01T19:03:13.699Z,99.90
2023-01-01T19:05:40.818Z,99.90
2023-01-01T19:08:07.642Z,99.90
2023-01-01T19:10:35.960Z,99.90
2023-01-01T19:13:17.762Z,99.90
2023-01-01T19:15:45.999Z,99.90
2023-01-01T19:18:15.216Z,99.90
2023-01-01T19:20:41.992Z,99.90
2023-01-01T19:23:14.783Z,99.90
2023-01-01T19:25:41.536Z,99.90
2023-01-01T19:28:17.766Z,99.90
2023-01-01T19:30:45.405Z,99.90
2023-01-01T19:33:12.346Z,99.90
2023-01-01T19:35:39.244Z,99.90
2023-01-01T19:38:06.127Z,99.90
2023-01-01T19:40:32.882Z,99.90
2023-01-01T19:42:59.798Z,99.90
2023-01-01T19:45:26.516Z,99.90
2023-01-01T19:47:53.187Z,99.90
2023-01-01T19:50:21.241Z,99.90
2023-01-01T19:52:48.250Z,99.90
2023-01-01T19:55:14.994Z,99.90
2023-01-01T19:57:41.685Z,99.90
2023-01-01T20:00:08.806Z,99.90
2023-01-01T20:02:45.938Z,99.90
2023-01-01T20:05:13.050Z,99.90
2023-01-01T20:07:39.750Z,99.90
2023-01-01T20:10:06.705Z,99.90
2023-01-01T20:12:33.443Z,99.90
2023-01-01T20:15:00.234Z,99.90
2023-01-01T20:17:26.959Z,99.90
2023-01-01T20:19:54.825Z,99.90
2023-01-01T20:22:22.098Z,99.90
2023-01-01T20:24:49.073Z,99.90
2023-01-01T20:27:17.809Z,99.90
2023-01-01T20:29:44.639Z,99.90
2023-01-01T20:32:13.135Z,99.90
2023-01-01T20:34:40.247Z,99.90
2023-01-01T20:37:25.983Z,99.90
2023-01-01T20:39:53.151Z,99.90
2023-01-01T20:42:19.852Z,99.90
2023-01-01T20:44:46.504Z,99.90
2023-01-01T20:47:14.048Z,99.90
2023-01-01T20:49:41.731Z,99.90
2023-01-01T20:52:08.578Z,99.90
2023-01-01T20:54:35.407Z,99.90
2023-01-01T20:57:02.199Z,99.90
2023-01-01T20:59:35.860Z,99.90
2023-01-01T21:02:04.968Z,99.90
2023-01-01T21:04:32.032Z,99.90
2023-01-01T21:06:58.830Z,99.90
2023-01-01T21:09:25.562Z,99.90
2023-01-01T21:11:52.270Z,99.90
2023-01-01T21:14:19.788Z,99.90
2023-01-01T21:16:46.849Z,99.90
2023-01-01T21:19:13.651Z,99.90
2023-01-01T21:21:50.243Z,99.90
2023-01-01T21:24:27.457Z,99.90
2023-01-01T21:26:55.740Z,99.90
2023-01-01T21:29:24.253Z,99.90
2023-01-01T21:31:52.290Z,99.90
2023-01-01T21:34:23.139Z,99.90
2023-01-01T21:36:50.025Z,99.90
2023-01-01T21:39:18.436Z,99.90
2023-01-01T21:41:45.165Z,99.90
2023-01-01T21:44:14.124Z,99.90
2023-01-01T21:46:46.951Z,99.90
2023-01-01T21:49:24.647Z,99.90
2023-01-01T21:51:56.240Z,99.90
2023-01-01T21:54:27.217Z,99.90
2023-01-01T21:56:58.134Z,99.90
2023-01-01T21:59:33.499Z,99.90
2023-01-01T22:02:06.929Z,99.90
2023-01-01T22:04:41.039Z,99.90
2023-01-01T22:10:22.320Z,99.90
2023-01-01T22:12:53.518Z,99.90
2023-01-01T22:15:27.065Z,99.90
2023-01-01T22:18:13.114Z,99.90
2023-01-01T22:20:41.334Z,99.90
2023-01-01T22:23:34.244Z,99.90
2023-01-01T22:26:03.890Z,99.90
2023-01-01T22:28:37.755Z,99.90
2023-01-01T22:31:04.541Z,99.90
2023-01-01T22:33:31.492Z,99.90
2023-01-01T22:35:58.172Z,99.90
2023-01-01T22:38:28.934Z,99.90
2023-01-01T22:40:55.596Z,99.90
2023-01-01T22:43:33.010Z,99.90
2023-01-01T22:46:04.638Z,99.90
2023-01-01T22:48:34.025Z,99.90
2023-01-01T22:51:10.942Z,99.90
2023-01-01T22:53:37.699Z,99.90
2023-01-01T22:56:04.435Z,99.90
2023-01-01T22:58:31.336Z,99.90
2023-01-01T23:00:58.039Z,99.90
2023-01-01T23:03:24.748Z,99.90
2023-01-01T23:05:52.229Z,99.90
2023-01-01T23:08:19.511Z,99.90
2023-01-01T23:10:46.536Z,99.90
2023-01-01T23:13:35.071Z,99.90
2023-01-01T23:16:02.010Z,99.90
2023-01-01T23:18:30.036Z,99.90
2023-01-01T23:20:57.463Z,99.90
2023-01-01T23:23:24.508Z,99.90
2023-01-01T23:25:51.202Z,99.90
2023-01-01T23:28:18.177Z,99.90
2023-01-01T23:30:45.212Z,99.90
2023-01-01T23:33:12.063Z,99.90
2023-01-01T23:35:38.801Z,99.90
2023-01-01T23:38:05.611Z,99.90
2023-01-01T23:40:32.240Z,99.90
2023-01-01T23:42:59.335Z,99.90
2023-01-01T23:45:25.986Z,99.90
2023-01-01T23:47:52.870Z,99.90
2023-01-01T23:50:19.517Z,99.90
2023-01-01T23:52:46.316Z,99.90
2023-01-01T23:55:12.927Z,99.90
2023-01-01T23:57:39.615Z,99.90
